createdAt,value
2018-03-14T00:01:57.786Z,2.00
2018-03-14T00:04:26.975Z,1.70
2018-03-14T00:06:56.171Z,1.53
2018-03-14T00:09:25.269Z,1.87
2018-03-14T00:11:54.464Z,2.10
2018-03-14T00:14:23.661Z,1.97
2018-03-14T00:16:52.823Z,1.53
2018-03-14T00:19:22.072Z,2.00
2018-03-14T00:21:51.258Z,1.93
2018-03-14T00:24:20.405Z,2.30
2018-03-14T00:26:49.654Z,2.00
2018-03-14T00:29:18.882Z,2.17
2018-03-14T00:31:48.055Z,3.13
2018-03-14T00:34:17.472Z,2.00
2018-03-14T00:36:46.754Z,2.77
2018-03-14T00:39:15.905Z,2.47
2018-03-14T00:41:45.157Z,2.70
2018-03-14T00:44:14.347Z,2.83
2018-03-14T00:46:43.438Z,2.87
2018-03-14T00:49:12.535Z,3.43
2018-03-14T00:51:41.740Z,3.10
2018-03-14T00:54:10.934Z,2.93
2018-03-14T00:56:40.206Z,3.10
2018-03-14T00:59:09.337Z,3.03
2018-03-14T01:01:38.535Z,3.93
2018-03-14T01:04:07.732Z,4.17
2018-03-14T01:06:36.937Z,3.60
2018-03-14T01:09:06.132Z,3.83
2018-03-14T01:11:35.438Z,2.17
2018-03-14T01:14:04.621Z,2.70
2018-03-14T01:16:34.708Z,2.90
2018-03-14T01:19:03.947Z,2.10
2018-03-14T01:21:33.147Z,2.37
2018-03-14T01:24:02.339Z,2.87
2018-03-14T01:26:31.534Z,2.70
2018-03-14T01:29:00.733Z,2.90
2018-03-14T01:31:29.932Z,3.23
2018-03-14T01:33:59.131Z,3.50
2018-03-14T01:36:28.333Z,3.17
2018-03-14T01:38:57.531Z,3.50
2018-03-14T01:41:26.835Z,3.17
2018-03-14T01:43:56.032Z,2.83
2018-03-14T01:46:25.229Z,2.67
2018-03-14T01:48:54.420Z,3.23
2018-03-14T01:51:23.627Z,2.60
2018-03-14T01:53:53.483Z,3.23
2018-03-14T01:56:23.386Z,3.03
2018-03-14T01:58:52.512Z,2.70
2018-03-14T02:01:21.745Z,3.70
2018-03-14T02:03:50.943Z,4.33
2018-03-14T02:06:20.145Z,4.17
2018-03-14T02:08:49.313Z,4.70
2018-03-14T02:11:18.505Z,3.97
2018-03-14T02:13:47.742Z,4.33
2018-03-14T02:16:16.937Z,4.73
2018-03-14T02:18:46.094Z,5.10
2018-03-14T02:21:15.329Z,4.57
2018-03-14T02:23:44.539Z,3.50
2018-03-14T02:26:13.695Z,4.10
2018-03-14T02:28:42.922Z,4.07
2018-03-14T02:31:12.076Z,3.87
2018-03-14T02:33:41.318Z,3.83
2018-03-14T02:36:10.520Z,3.33
2018-03-14T02:38:39.688Z,3.00
2018-03-14T02:41:08.922Z,3.63
2018-03-14T02:43:38.116Z,3.73
2018-03-14T02:46:07.311Z,3.67
2018-03-14T02:48:36.509Z,2.80
2018-03-14T02:51:05.711Z,2.80
2018-03-14T02:53:34.904Z,2.80
2018-03-14T02:56:04.104Z,3.03
2018-03-14T02:58:33.308Z,3.20
2018-03-14T03:01:02.501Z,3.20
2018-03-14T03:03:31.654Z,2.50
2018-03-14T03:06:00.795Z,2.40
2018-03-14T03:08:29.963Z,2.30
2018-03-14T03:10:59.190Z,2.20
2018-03-14T03:13:28.392Z,2.53
2018-03-14T03:15:57.584Z,2.10
2018-03-14T03:18:26.783Z,3.20
2018-03-14T03:20:55.882Z,2.40
2018-03-14T03:23:25.086Z,3.03
2018-03-14T03:25:54.279Z,2.73
2018-03-14T03:28:23.483Z,2.87
2018-03-14T03:30:52.637Z,2.33
2018-03-14T03:33:21.874Z,3.10
2018-03-14T03:35:51.022Z,3.50
2018-03-14T03:38:20.162Z,3.87
2018-03-14T03:40:49.362Z,3.10
2018-03-14T03:43:18.567Z,2.80
2018-03-14T03:45:47.872Z,3.30
2018-03-14T03:48:17.011Z,2.90
2018-03-14T03:50:46.119Z,3.37
2018-03-14T03:53:15.320Z,2.47
2018-03-14T03:55:44.450Z,2.93
2018-03-14T03:58:13.647Z,3.37
2018-03-14T04:00:42.889Z,3.17
2018-03-14T04:03:12.050Z,3.90
2018-03-14T04:05:41.225Z,3.30
2018-03-14T04:08:10.405Z,3.10
2018-03-14T04:10:39.538Z,2.37
2018-03-14T04:13:08.742Z,2.47
2018-03-14T04:15:37.932Z,2.27
2018-03-14T04:18:07.130Z,3.50
2018-03-14T04:20:36.289Z,4.10
2018-03-14T04:23:05.533Z,4.13
2018-03-14T04:25:34.735Z,4.43
2018-03-14T04:28:04.215Z,4.13
2018-03-14T04:30:33.402Z,4.90
2018-03-14T04:33:02.629Z,4.07
2018-03-14T04:35:31.826Z,3.80
2018-03-14T04:38:01.024Z,3.10
2018-03-14T04:40:30.223Z,3.90
2018-03-14T04:42:59.377Z,3.83
2018-03-14T04:45:28.476Z,3.50
2018-03-14T04:47:57.582Z,3.97
2018-03-14T04:50:26.709Z,3.80
2018-03-14T04:52:56.226Z,4.70
2018-03-14T04:55:25.408Z,3.77
2018-03-14T04:57:54.616Z,4.70
2018-03-14T05:00:23.807Z,6.53
2018-03-14T05:02:53.007Z,6.83
2018-03-14T05:05:22.208Z,5.20
2018-03-14T05:07:51.361Z,5.23
2018-03-14T05:10:21.116Z,5.80
2018-03-14T05:12:50.313Z,5.10
2018-03-14T05:15:19.508Z,5.50
2018-03-14T05:17:48.706Z,4.93
2018-03-14T05:20:17.911Z,5.30
2018-03-14T05:22:47.113Z,7.53
2018-03-14T05:25:16.304Z,8.00
2018-03-14T05:27:45.497Z,6.77
2018-03-14T05:30:14.653Z,4.40
2018-03-14T05:32:43.793Z,4.50
2018-03-14T05:35:12.992Z,4.80
2018-03-14T05:37:42.189Z,4.60
2018-03-14T05:40:11.383Z,4.80
2018-03-14T05:42:40.590Z,5.60
2018-03-14T05:45:09.786Z,5.60
2018-03-14T05:47:38.988Z,6.03
2018-03-14T05:50:08.178Z,5.03
2018-03-14T05:52:37.379Z,5.00
2018-03-14T05:55:06.575Z,5.10
2018-03-14T05:57:35.754Z,5.07
2018-03-14T06:00:04.979Z,4.87
2018-03-14T06:02:34.168Z,5.13
2018-03-14T06:05:03.473Z,5.57
2018-03-14T06:07:32.666Z,4.97
2018-03-14T06:10:01.867Z,5.80
2018-03-14T06:12:31.067Z,5.93
2018-03-14T06:15:00.271Z,6.17
2018-03-14T06:17:29.424Z,5.53
2018-03-14T06:19:58.567Z,5.17
2018-03-14T06:22:27.763Z,5.60
2018-03-14T06:24:56.914Z,7.57
2018-03-14T06:27:26.259Z,7.03
2018-03-14T06:29:55.539Z,7.80
2018-03-14T06:32:25.450Z,6.30
2018-03-14T06:34:54.576Z,5.23
2018-03-14T06:37:23.766Z,5.80
2018-03-14T06:39:52.965Z,5.53
2018-03-14T06:42:22.138Z,6.53
2018-03-14T06:44:52.078Z,5.57
2018-03-14T06:47:21.275Z,5.53
2018-03-14T06:49:50.477Z,6.20
2018-03-14T06:52:19.783Z,5.40
2018-03-14T06:54:48.969Z,5.57
2018-03-14T06:57:18.093Z,4.87
2018-03-14T06:59:53.203Z,5.77
2018-03-14T07:02:28.349Z,4.10
2018-03-14T07:05:03.353Z,3.87
2018-03-14T07:07:32.559Z,4.30
2018-03-14T07:10:01.743Z,4.37
2018-03-14T07:12:30.972Z,3.87
2018-03-14T07:15:00.177Z,4.50
2018-03-14T07:17:29.421Z,4.90
2018-03-14T07:19:58.670Z,4.80
2018-03-14T07:22:27.865Z,5.20
2018-03-14T07:24:57.069Z,5.93
2018-03-14T07:27:26.224Z,5.00
2018-03-14T07:29:55.361Z,4.70
2018-03-14T07:32:24.562Z,4.80
2018-03-14T07:34:53.757Z,4.53
2018-03-14T07:37:22.928Z,6.33
2018-03-14T07:39:52.158Z,3.60
2018-03-14T07:42:21.466Z,5.40
2018-03-14T07:44:50.657Z,3.17
2018-03-14T07:47:19.820Z,4.13
2018-03-14T07:49:48.947Z,3.30
2018-03-14T07:52:18.139Z,3.03
2018-03-14T07:54:47.988Z,2.73
2018-03-14T07:57:17.157Z,2.80
2018-03-14T07:59:46.359Z,2.80
2018-03-14T08:02:15.554Z,2.97
2018-03-14T08:04:44.749Z,3.60
2018-03-14T08:07:13.946Z,3.00
2018-03-14T08:09:43.145Z,3.50
2018-03-14T08:12:12.348Z,3.77
2018-03-14T08:14:41.548Z,3.83
2018-03-14T08:17:10.689Z,2.63
2018-03-14T08:19:39.939Z,2.80
2018-03-14T08:22:09.132Z,3.03
2018-03-14T08:24:38.343Z,3.20
2018-03-14T08:27:07.528Z,2.90
2018-03-14T08:29:36.727Z,2.77
2018-03-14T08:32:06.508Z,3.30
2018-03-14T08:34:35.747Z,2.60
2018-03-14T08:37:04.894Z,3.13
2018-03-14T08:39:34.035Z,1.80
2018-03-14T08:42:03.187Z,3.10
2018-03-14T08:44:32.324Z,3.20
2018-03-14T08:47:01.522Z,2.70
2018-03-14T08:49:30.722Z,3.00
2018-03-14T08:51:59.923Z,2.53
2018-03-14T08:54:29.119Z,3.67
2018-03-14T08:56:58.294Z,3.40
2018-03-14T08:59:27.470Z,3.40
2018-03-14T09:01:56.958Z,3.40
2018-03-14T09:04:26.074Z,3.23
2018-03-14T09:06:55.270Z,3.80
2018-03-14T09:09:24.513Z,3.20
2018-03-14T09:11:53.918Z,2.17
2018-03-14T09:14:23.117Z,1.73
2018-03-14T09:16:52.314Z,2.47
2018-03-14T09:19:21.565Z,1.60
2018-03-14T09:21:50.817Z,2.43
2018-03-14T09:24:19.914Z,1.60
2018-03-14T09:26:49.106Z,1.93
2018-03-14T09:29:18.279Z,1.73
2018-03-14T09:31:47.721Z,1.67
2018-03-14T09:34:16.903Z,2.47
2018-03-14T09:36:46.105Z,2.00
2018-03-14T09:39:15.308Z,2.10
2018-03-14T09:41:44.506Z,2.23
2018-03-14T09:44:13.701Z,1.67
2018-03-14T09:46:42.895Z,2.40
2018-03-14T09:49:12.066Z,2.20
2018-03-14T09:51:41.157Z,2.10
2018-03-14T09:54:10.340Z,2.77
2018-03-14T09:56:39.490Z,2.13
2018-03-14T09:59:08.682Z,2.20
2018-03-14T10:01:37.885Z,2.07
2018-03-14T10:04:07.087Z,2.37
2018-03-14T10:06:36.327Z,2.10
2018-03-14T10:09:05.482Z,2.30
2018-03-14T10:11:34.787Z,2.00
2018-03-14T10:14:04.006Z,2.30
2018-03-14T10:16:33.127Z,2.47
2018-03-14T10:19:02.275Z,2.13
2018-03-14T10:21:31.434Z,1.60
2018-03-14T10:24:00.667Z,2.60
2018-03-14T10:26:29.869Z,1.90
2018-03-14T10:28:59.067Z,1.70
2018-03-14T10:31:30.724Z,1.70
2018-03-14T10:33:59.920Z,2.10
2018-03-14T10:36:29.123Z,1.90
2018-03-14T10:38:58.273Z,1.37
2018-03-14T10:41:27.610Z,1.73
2018-03-14T10:43:56.813Z,2.10
2018-03-14T10:46:26.016Z,1.80
2018-03-14T10:48:55.317Z,1.77
2018-03-14T10:51:24.510Z,1.87
2018-03-14T10:53:53.712Z,1.60
2018-03-14T10:56:22.906Z,2.00
2018-03-14T10:58:52.164Z,1.33
2018-03-14T11:01:22.223Z,1.40
2018-03-14T11:03:51.421Z,1.57
2018-03-14T11:06:20.619Z,1.60
2018-03-14T11:08:49.819Z,1.80
2018-03-14T11:11:19.013Z,2.07
2018-03-14T11:13:48.177Z,1.73
2018-03-14T11:16:17.381Z,1.23
2018-03-14T11:18:46.509Z,1.53
2018-03-14T11:21:15.807Z,1.47
2018-03-14T11:23:44.934Z,2.30
2018-03-14T11:26:14.106Z,2.40
2018-03-14T11:28:43.259Z,2.03
2018-03-14T11:31:12.506Z,1.33
2018-03-14T11:33:41.702Z,2.00
2018-03-14T11:36:10.902Z,1.73
2018-03-14T11:38:40.094Z,1.70
2018-03-14T11:41:09.288Z,1.80
2018-03-14T11:43:38.486Z,1.43
2018-03-14T11:46:07.686Z,1.80
2018-03-14T11:48:36.796Z,2.00
2018-03-14T11:51:05.954Z,2.07
2018-03-14T11:53:35.088Z,2.20
2018-03-14T11:56:04.249Z,2.33
2018-03-14T11:58:33.370Z,2.43
2018-03-14T12:01:02.579Z,1.77
2018-03-14T12:03:32.688Z,2.20
2018-03-14T12:06:01.844Z,2.13
2018-03-14T12:08:31.089Z,2.50
2018-03-14T12:11:00.251Z,1.80
2018-03-14T12:13:29.486Z,2.10
2018-03-14T12:15:58.653Z,2.20
2018-03-14T12:18:27.778Z,1.53
2018-03-14T12:20:57.096Z,1.97
2018-03-14T12:23:26.284Z,1.60
2018-03-14T12:25:55.479Z,2.30
2018-03-14T12:28:24.680Z,2.40
2018-03-14T12:30:53.868Z,1.83
2018-03-14T12:33:23.076Z,2.13
2018-03-14T12:35:52.279Z,2.17
2018-03-14T12:38:22.166Z,2.20
2018-03-14T12:40:51.275Z,2.07
2018-03-14T12:43:20.481Z,1.70
2018-03-14T12:45:49.713Z,1.50
2018-03-14T12:48:18.883Z,1.60
2018-03-14T12:50:48.078Z,1.80
2018-03-14T12:53:17.278Z,2.27
2018-03-14T12:55:46.468Z,1.33
2018-03-14T12:58:15.559Z,1.60
2018-03-14T13:00:44.767Z,1.67
2018-03-14T13:03:14.019Z,1.67
2018-03-14T13:05:43.158Z,1.60
2018-03-14T13:08:12.322Z,2.70
2018-03-14T13:10:41.459Z,3.03
2018-03-14T13:13:10.656Z,2.93
2018-03-14T13:15:39.818Z,2.90
2018-03-14T13:18:09.101Z,3.80
2018-03-14T13:20:38.322Z,2.83
2018-03-14T13:23:07.549Z,3.90
2018-03-14T13:25:36.754Z,3.03
2018-03-14T13:28:06.767Z,3.93
2018-03-14T13:30:35.961Z,4.37
2018-03-14T13:33:05.166Z,3.60
2018-03-14T13:35:34.358Z,3.20
2018-03-14T13:38:03.552Z,16.27
2018-03-14T13:40:32.714Z,9.10
2018-03-14T13:43:01.953Z,3.30
2018-03-14T13:45:31.162Z,3.60
2018-03-14T13:48:00.350Z,6.30
2018-03-14T13:50:29.545Z,9.33
2018-03-14T13:52:58.753Z,3.37
2018-03-14T13:55:27.952Z,3.40
2018-03-14T13:57:57.146Z,4.40
2018-03-14T14:00:26.348Z,3.23
2018-03-14T14:02:55.544Z,3.13
2018-03-14T14:05:24.738Z,3.40
2018-03-14T14:07:53.826Z,3.77
2018-03-14T14:10:23.038Z,2.70
2018-03-14T14:12:52.202Z,3.37
2018-03-14T14:15:21.322Z,3.23
2018-03-14T14:17:50.527Z,3.00
2018-03-14T14:20:19.734Z,2.80
2018-03-14T14:22:48.893Z,2.67
2018-03-14T14:25:18.095Z,2.70
2018-03-14T14:27:47.189Z,3.53
2018-03-14T14:30:16.419Z,2.67
2018-03-14T14:32:45.619Z,2.40
2018-03-14T14:35:14.826Z,2.70
2018-03-14T14:37:43.970Z,2.90
2018-03-14T14:40:13.181Z,3.00
2018-03-14T14:42:42.306Z,3.30
2018-03-14T14:45:11.495Z,2.93
2018-03-14T14:47:40.803Z,3.23
2018-03-14T14:50:09.999Z,3.77
2018-03-14T14:52:39.198Z,3.50
2018-03-14T14:55:08.370Z,3.20
2018-03-14T14:57:37.590Z,3.87
2018-03-14T15:00:06.800Z,4.27
2018-03-14T15:02:35.997Z,4.57
2018-03-14T15:05:05.246Z,3.83
2018-03-14T15:07:34.399Z,3.00
2018-03-14T15:10:03.588Z,3.60
2018-03-14T15:12:33.137Z,3.60
2018-03-14T15:15:02.295Z,3.53
2018-03-14T15:17:31.491Z,3.80
2018-03-14T15:20:00.585Z,3.93
2018-03-14T15:22:29.778Z,4.30
2018-03-14T15:24:58.987Z,5.20
2018-03-14T15:27:28.074Z,5.20
2018-03-14T15:29:57.270Z,4.87
2018-03-14T15:32:26.480Z,5.00
2018-03-14T15:34:55.670Z,4.77
2018-03-14T15:37:24.846Z,4.63
2018-03-14T15:39:54.074Z,5.07
2018-03-14T15:42:23.248Z,5.20
2018-03-14T15:44:52.460Z,5.30
2018-03-14T15:47:21.634Z,7.10
2018-03-14T15:49:50.757Z,9.70
2018-03-14T15:54:55.499Z,4.17
2018-03-14T15:57:24.698Z,4.23
2018-03-14T15:59:53.766Z,4.33
2018-03-14T16:02:22.998Z,4.47
2018-03-14T16:04:52.193Z,4.40
2018-03-14T16:07:21.378Z,4.60
2018-03-14T16:09:50.587Z,4.77
2018-03-14T16:12:19.791Z,6.27
2018-03-14T16:14:48.968Z,9.00
2018-03-14T16:17:18.471Z,6.80
2018-03-14T16:19:47.687Z,6.10
2018-03-14T16:22:16.899Z,7.53
2018-03-14T16:24:46.091Z,7.33
2018-03-14T16:27:15.290Z,7.43
2018-03-14T16:29:44.482Z,7.40
2018-03-14T16:32:13.686Z,7.30
2018-03-14T16:34:42.833Z,7.63
2018-03-14T16:37:11.985Z,8.87
2018-03-14T16:39:41.174Z,9.10
2018-03-14T16:42:10.700Z,7.90
2018-03-14T16:44:39.806Z,7.80
2018-03-14T16:47:08.978Z,9.27
2018-03-14T16:49:38.169Z,10.50
2018-03-14T16:52:07.344Z,11.13
2018-03-14T16:54:36.517Z,10.13
2018-03-14T16:57:05.667Z,10.23
2018-03-14T16:59:34.864Z,10.23
2018-03-14T17:02:04.073Z,9.23
2018-03-14T17:04:33.232Z,11.17
2018-03-14T17:07:02.460Z,10.37
2018-03-14T17:09:31.661Z,13.27
2018-03-14T17:12:00.871Z,10.70
2018-03-14T17:14:30.028Z,10.57
2018-03-14T17:16:59.254Z,8.50
2018-03-14T17:19:28.406Z,9.03
2018-03-14T17:21:57.751Z,7.87
2018-03-14T17:24:27.051Z,9.23
2018-03-14T17:26:56.245Z,8.30
2018-03-14T17:29:25.563Z,8.17
2018-03-14T17:31:54.852Z,8.80
2018-03-14T17:34:23.982Z,9.07
2018-03-14T17:36:53.361Z,9.17
2018-03-14T17:39:22.654Z,10.47
2018-03-14T17:41:51.914Z,10.67
2018-03-14T17:44:21.146Z,10.17
2018-03-14T17:46:50.453Z,10.57
2018-03-14T17:49:19.745Z,9.80
2018-03-14T17:51:49.046Z,10.07
2018-03-14T17:54:18.337Z,10.43
2018-03-14T17:56:47.568Z,10.53
2018-03-14T17:59:17.577Z,11.20
2018-03-14T18:01:46.741Z,10.67
2018-03-14T18:04:15.960Z,10.73
2018-03-14T18:06:45.131Z,11.53
2018-03-14T18:09:15.054Z,11.33
2018-03-14T18:11:44.278Z,13.40
2018-03-14T18:14:13.479Z,13.77
2018-03-14T18:16:42.632Z,14.87
2018-03-14T18:19:11.874Z,12.83
2018-03-14T18:21:41.042Z,13.97
2018-03-14T18:24:10.378Z,15.97
2018-03-14T18:26:39.667Z,16.40
2018-03-14T18:29:08.875Z,16.00
2018-03-14T18:31:38.069Z,14.70
2018-03-14T18:34:07.258Z,13.10
2018-03-14T18:36:36.455Z,14.33
2018-03-14T18:39:05.768Z,11.80
2018-03-14T18:41:34.963Z,12.70
2018-03-14T18:44:04.161Z,11.47
2018-03-14T18:46:34.015Z,12.00
2018-03-14T18:49:03.435Z,11.23
2018-03-14T18:51:32.878Z,10.77
2018-03-14T18:54:02.052Z,11.03
2018-03-14T18:56:31.326Z,11.17
2018-03-14T18:59:00.474Z,11.20
2018-03-14T19:01:29.669Z,11.10
2018-03-14T19:03:58.870Z,12.33
2018-03-14T19:06:29.612Z,12.43
2018-03-14T19:08:59.625Z,11.23
2018-03-14T19:11:28.824Z,11.23
2018-03-14T19:13:58.122Z,13.03
2018-03-14T19:16:27.319Z,12.67
2018-03-14T19:18:56.430Z,12.47
2018-03-14T19:21:25.709Z,12.90
2018-03-14T19:23:55.329Z,13.07
2018-03-14T19:26:24.552Z,13.47
2018-03-14T19:28:54.747Z,13.93
2018-03-14T19:31:23.943Z,14.17
2018-03-14T19:33:53.143Z,14.23
2018-03-14T19:36:22.310Z,14.00
2018-03-14T19:38:51.774Z,14.67
2018-03-14T19:41:20.938Z,11.40
2018-03-14T19:43:50.141Z,11.37
2018-03-14T19:46:19.543Z,12.10
2018-03-14T19:48:48.651Z,13.77
2018-03-14T19:51:18.144Z,11.97
2018-03-14T19:53:47.327Z,12.97
2018-03-14T19:56:16.538Z,14.87
2018-03-14T19:58:45.742Z,15.07
2018-03-14T20:01:15.137Z,14.87
2018-03-14T20:03:44.438Z,14.53
2018-03-14T20:06:13.635Z,14.33
2018-03-14T20:08:42.892Z,14.13
2018-03-14T20:11:12.038Z,13.87
2018-03-14T20:13:41.236Z,12.67
2018-03-14T20:16:10.433Z,11.17
2018-03-14T20:18:39.631Z,11.43
2018-03-14T20:21:08.816Z,11.40
2018-03-14T20:23:38.021Z,12.10
2018-03-14T20:26:07.217Z,11.40
2018-03-14T20:28:36.510Z,10.77
2018-03-14T20:31:05.716Z,11.60
2018-03-14T20:33:34.918Z,11.27
2018-03-14T20:36:04.183Z,11.60
2018-03-14T20:38:33.280Z,11.43
2018-03-14T20:41:02.408Z,11.60
2018-03-14T20:43:31.611Z,11.63
2018-03-14T20:46:00.809Z,11.03
2018-03-14T20:48:30.005Z,10.87
2018-03-14T20:50:59.205Z,11.60
2018-03-14T20:53:28.408Z,10.70
2018-03-14T20:55:57.624Z,9.97
2018-03-14T20:58:26.752Z,9.87
2018-03-14T21:00:55.900Z,9.80
2018-03-14T21:03:25.089Z,10.23
2018-03-14T21:05:54.292Z,9.70
2018-03-14T21:08:23.490Z,9.70
2018-03-14T21:10:52.658Z,10.00
2018-03-14T21:13:22.472Z,9.43
2018-03-14T21:15:51.705Z,10.07
2018-03-14T21:18:20.903Z,11.07
2018-03-14T21:20:50.827Z,11.50
2018-03-14T21:23:21.073Z,8.40
2018-03-14T21:25:51.222Z,9.97
2018-03-14T21:28:21.039Z,10.40
2018-03-14T21:30:51.096Z,9.87
2018-03-14T21:33:21.319Z,8.20
2018-03-14T21:35:50.974Z,8.43
2018-03-14T21:38:20.800Z,8.23
2018-03-14T21:40:50.756Z,8.90
2018-03-14T21:43:20.773Z,10.40
2018-03-14T21:45:50.684Z,10.13
2018-03-14T21:48:20.765Z,10.83
2018-03-14T21:50:50.568Z,10.00
2018-03-14T21:53:20.765Z,11.03
2018-03-14T21:55:50.134Z,10.50
2018-03-14T21:58:20.505Z,11.60
2018-03-14T22:00:50.483Z,11.10
2018-03-14T22:03:20.613Z,10.63
2018-03-14T22:05:50.714Z,10.90
2018-03-14T22:08:21.102Z,10.33
2018-03-14T22:10:50.929Z,10.20
2018-03-14T22:13:20.884Z,10.57
2018-03-14T22:15:51.303Z,10.37
2018-03-14T22:18:21.324Z,11.00
2018-03-14T22:20:51.195Z,9.90
2018-03-14T22:23:21.154Z,10.43
2018-03-14T22:25:51.286Z,10.33
2018-03-14T22:28:21.485Z,11.37
2018-03-14T22:30:51.277Z,11.03
2018-03-14T22:33:21.113Z,11.43
2018-03-14T22:35:50.734Z,10.93
2018-03-14T22:38:21.001Z,10.77
2018-03-14T22:40:50.304Z,11.80
2018-03-14T22:43:20.060Z,11.00
2018-03-14T22:45:50.078Z,11.97
2018-03-14T22:48:20.409Z,12.27
2018-03-14T22:50:51.567Z,11.43
2018-03-14T22:53:21.471Z,11.03
2018-03-14T22:55:50.856Z,11.53
2018-03-14T22:58:20.052Z,11.53
2018-03-14T23:00:50.182Z,12.53
2018-03-14T23:03:20.096Z,12.53
2018-03-14T23:05:50.235Z,13.17
2018-03-14T23:08:20.448Z,13.30
2018-03-14T23:10:50.451Z,13.10
2018-03-14T23:13:20.948Z,13.17
2018-03-14T23:15:51.008Z,12.90
2018-03-14T23:18:21.122Z,11.67
2018-03-14T23:20:50.619Z,12.80
2018-03-14T23:23:19.814Z,13.30
2018-03-14T23:25:49.506Z,14.13
2018-03-14T23:28:19.349Z,13.73
2018-03-14T23:30:49.561Z,14.33
2018-03-14T23:33:19.693Z,13.27
2018-03-14T23:35:49.677Z,14.23
2018-03-14T23:38:19.618Z,13.73
2018-03-14T23:40:48.776Z,13.80
2018-03-14T23:43:18.643Z,13.67
2018-03-14T23:45:48.546Z,14.23
2018-03-14T23:48:19.971Z,14.53
2018-03-14T23:50:50.223Z,14.23
2018-03-14T23:53:20.038Z,12.97
2018-03-14T23:55:49.329Z,14.07
2018-03-14T23:58:19.361Z,13.33
